createdAt,value
2018-08-05T00:00:25.619Z,5.73
2018-08-05T00:02:54.572Z,6.00
2018-08-05T00:05:23.567Z,5.97
2018-08-05T00:07:52.584Z,5.83
2018-08-05T00:10:21.527Z,5.23
2018-08-05T00:12:50.551Z,5.20
2018-08-05T00:15:19.537Z,5.40
2018-08-05T00:17:48.577Z,5.73
2018-08-05T00:20:17.581Z,4.80
2018-08-05T00:22:46.518Z,4.53
2018-08-05T00:25:15.469Z,5.30
2018-08-05T00:27:44.441Z,4.80
2018-08-05T00:30:13.782Z,5.30
2018-08-05T00:32:43.058Z,5.23
2018-08-05T00:35:12.299Z,5.50
2018-08-05T00:37:41.231Z,4.60
2018-08-05T00:40:11.775Z,5.53
2018-08-05T00:42:40.735Z,4.73
2018-08-05T00:45:11.051Z,5.67
2018-08-05T00:47:40.262Z,4.83
2018-08-05T00:50:09.706Z,5.03
2018-08-05T00:52:38.712Z,5.50
2018-08-05T00:55:08.002Z,6.27
2018-08-05T00:57:36.988Z,5.60
2018-08-05T01:00:07.711Z,4.87
2018-08-05T01:02:36.714Z,4.40
2018-08-05T01:05:06.046Z,6.10
2018-08-05T01:07:34.975Z,5.40
2018-08-05T01:10:03.991Z,6.57
2018-08-05T01:12:32.998Z,5.63
2018-08-05T01:15:02.027Z,6.00
2018-08-05T01:17:31.010Z,6.63
2018-08-05T01:20:00.075Z,6.60
2018-08-05T01:22:29.027Z,6.80
2018-08-05T01:24:58.019Z,6.10
2018-08-05T01:27:27.071Z,5.60
2018-08-05T01:29:56.050Z,6.17
2018-08-05T01:32:25.086Z,4.90
2018-08-05T01:34:54.099Z,5.47
2018-08-05T01:37:23.052Z,5.27
2018-08-05T01:39:52.081Z,5.00
2018-08-05T01:42:21.060Z,5.70
2018-08-05T01:44:50.031Z,6.80
2018-08-05T01:47:19.019Z,6.30
2018-08-05T01:49:47.992Z,6.20
2018-08-05T01:52:16.970Z,8.50
2018-08-05T01:54:45.950Z,7.80
2018-08-05T01:57:14.943Z,7.33
2018-08-05T01:59:43.927Z,7.20
2018-08-05T02:02:12.919Z,6.83
2018-08-05T02:04:42.861Z,6.57
2018-08-05T02:07:11.839Z,6.80
2018-08-05T02:09:40.806Z,6.97
2018-08-05T02:12:09.855Z,8.07
2018-08-05T02:14:38.800Z,9.10
2018-08-05T02:17:07.786Z,8.80
2018-08-05T02:19:36.767Z,7.70
2018-08-05T02:22:05.933Z,8.07
2018-08-05T02:24:34.999Z,9.50
2018-08-05T02:27:04.015Z,12.03
2018-08-05T02:29:32.966Z,11.93
2018-08-05T02:32:01.968Z,12.10
2018-08-05T02:34:30.946Z,11.23
2018-08-05T02:36:59.911Z,13.10
2018-08-05T02:39:28.880Z,11.17
2018-08-05T02:41:57.863Z,11.40
2018-08-05T02:44:26.811Z,11.40
2018-08-05T02:46:55.822Z,11.43
2018-08-05T02:49:24.781Z,11.83
2018-08-05T02:51:53.755Z,12.33
2018-08-05T02:54:22.786Z,12.43
2018-08-05T02:56:51.752Z,13.17
2018-08-05T02:59:20.910Z,12.73
2018-08-05T03:01:49.874Z,12.17
2018-08-05T03:04:18.906Z,11.90
2018-08-05T03:06:47.967Z,12.67
2018-08-05T03:09:17.010Z,14.17
2018-08-05T03:11:45.957Z,13.70
2018-08-05T03:14:14.896Z,14.40
2018-08-05T03:16:43.889Z,15.03
2018-08-05T03:19:12.858Z,16.07
2018-08-05T03:21:41.831Z,16.03
2018-08-05T03:24:10.819Z,15.17
2018-08-05T03:26:39.779Z,14.10
2018-08-05T03:29:08.838Z,14.17
2018-08-05T03:31:37.791Z,12.70
2018-08-05T03:34:06.864Z,12.37
2018-08-05T03:36:35.794Z,11.37
2018-08-05T03:39:07.075Z,10.30
2018-08-05T03:41:36.082Z,10.13
2018-08-05T03:44:05.119Z,9.50
2018-08-05T03:46:34.121Z,8.93
2018-08-05T03:49:03.106Z,9.27
2018-08-05T03:51:32.113Z,9.40
2018-08-05T03:54:01.093Z,7.93
2018-08-05T03:56:30.033Z,8.93
2018-08-05T03:58:59.050Z,6.83
2018-08-05T04:01:27.991Z,7.33
2018-08-05T04:03:58.050Z,7.47
2018-08-05T04:06:26.974Z,7.40
2018-08-05T04:08:56.204Z,7.17
2018-08-05T04:11:25.197Z,6.50
2018-08-05T04:13:54.168Z,6.83
2018-08-05T04:16:23.108Z,6.40
2018-08-05T04:18:52.076Z,6.30
2018-08-05T04:21:21.059Z,5.77
2018-08-05T04:23:50.000Z,5.90
2018-08-05T04:26:19.029Z,5.63
2018-08-05T04:28:47.947Z,5.50
2018-08-05T04:31:16.929Z,6.33
2018-08-05T04:33:45.887Z,5.23
2018-08-05T04:36:14.992Z,4.83
2018-08-05T04:38:43.959Z,5.07
2018-08-05T04:41:12.951Z,4.87
2018-08-05T04:43:41.878Z,5.13
2018-08-05T04:46:10.956Z,5.17
2018-08-05T04:48:39.923Z,5.90
2018-08-05T04:51:08.923Z,5.20
2018-08-05T04:53:37.867Z,5.40
2018-08-05T04:56:06.933Z,5.20
2018-08-05T04:58:35.868Z,5.53
2018-08-05T05:01:04.825Z,5.77
2018-08-05T05:03:33.817Z,5.30
2018-08-05T05:06:02.787Z,5.67
2018-08-05T05:08:31.764Z,5.67
2018-08-05T05:11:00.728Z,5.40
2018-08-05T05:13:29.677Z,5.53
2018-08-05T05:15:58.678Z,6.20
2018-08-05T05:18:27.779Z,6.53
2018-08-05T05:20:56.804Z,7.00
2018-08-05T05:23:25.755Z,6.40
2018-08-05T05:25:54.734Z,5.67
2018-08-05T05:28:23.755Z,6.40
2018-08-05T05:30:52.737Z,7.43
2018-08-05T05:33:21.871Z,6.60
2018-08-05T05:35:50.847Z,7.10
2018-08-05T05:38:19.805Z,5.80
2018-08-05T05:40:48.907Z,6.57
2018-08-05T05:43:17.902Z,6.73
2018-08-05T05:45:46.878Z,6.20
2018-08-05T05:48:16.012Z,5.87
2018-08-05T05:50:45.025Z,6.13
2018-08-05T05:53:14.029Z,6.17
2018-08-05T05:55:43.050Z,5.97
2018-08-05T05:58:12.136Z,6.30
2018-08-05T06:00:41.088Z,6.03
2018-08-05T06:03:10.098Z,6.03
2018-08-05T06:05:39.178Z,6.47
2018-08-05T06:08:08.181Z,6.10
2018-08-05T06:10:37.140Z,5.40
2018-08-05T06:13:06.451Z,5.97
2018-08-05T06:15:35.495Z,6.73
2018-08-05T06:18:04.507Z,6.23
2018-08-05T06:20:33.474Z,6.77
2018-08-05T06:23:02.469Z,7.50
2018-08-05T06:25:31.418Z,6.50
2018-08-05T06:28:00.433Z,6.80
2018-08-05T06:30:29.371Z,6.10
2018-08-05T06:32:58.324Z,6.40
2018-08-05T06:35:27.324Z,5.87
2018-08-05T06:37:56.335Z,5.80
2018-08-05T06:40:25.371Z,7.70
2018-08-05T06:42:55.337Z,7.77
2018-08-05T06:45:24.349Z,8.10
2018-08-05T06:47:53.307Z,7.50
2018-08-05T06:50:22.324Z,7.17
2018-08-05T06:52:51.511Z,7.67
2018-08-05T06:55:20.521Z,6.47
2018-08-05T06:57:49.498Z,7.33
2018-08-05T07:00:18.472Z,6.80
2018-08-05T07:02:47.506Z,6.20
2018-08-05T07:05:16.497Z,6.40
2018-08-05T07:07:45.499Z,4.33
2018-08-05T07:10:14.476Z,5.83
2018-08-05T07:12:43.498Z,4.40
2018-08-05T07:15:12.561Z,4.43
2018-08-05T07:17:41.575Z,4.30
2018-08-05T07:20:10.766Z,3.93
2018-08-05T07:22:40.502Z,4.87
2018-08-05T07:25:12.019Z,4.80
2018-08-05T07:27:42.514Z,5.87
2018-08-05T07:30:14.365Z,4.70
2018-08-05T07:32:44.664Z,3.87
2018-08-05T07:35:14.766Z,3.60
2018-08-05T07:37:44.882Z,4.03
2018-08-05T07:40:15.761Z,3.20
2018-08-05T07:42:45.846Z,3.63
2018-08-05T07:45:14.887Z,3.07
2018-08-05T07:47:43.991Z,3.27
2018-08-05T07:50:14.084Z,2.80
2018-08-05T07:52:43.111Z,2.53
2018-08-05T07:55:12.220Z,3.07
2018-08-05T07:57:41.324Z,2.53
2018-08-05T08:00:13.074Z,2.70
2018-08-05T08:02:43.008Z,2.10
2018-08-05T08:05:12.695Z,2.37
2018-08-05T08:07:42.572Z,2.80
2018-08-05T08:10:12.471Z,3.17
2018-08-05T08:12:41.649Z,2.90
2018-08-05T08:15:11.765Z,2.83
2018-08-05T08:17:41.398Z,2.60
2018-08-05T08:20:11.135Z,3.10
2018-08-05T08:22:40.325Z,3.30
2018-08-05T08:25:09.761Z,2.80
2018-08-05T08:27:38.860Z,3.20
2018-08-05T08:30:09.965Z,3.43
2018-08-05T08:32:39.070Z,2.17
2018-08-05T08:35:08.891Z,2.00
2018-08-05T08:37:38.201Z,2.70
2018-08-05T08:40:09.204Z,2.70
2018-08-05T08:42:38.211Z,2.40
2018-08-05T08:45:09.285Z,2.50
2018-08-05T08:47:38.302Z,2.97
2018-08-05T08:50:08.158Z,2.90
2018-08-05T08:52:37.340Z,2.37
2018-08-05T08:55:06.659Z,2.30
2018-08-05T08:57:35.753Z,2.40
2018-08-05T09:00:06.388Z,2.43
2018-08-05T09:02:35.416Z,2.30
2018-08-05T09:05:04.787Z,2.77
2018-08-05T09:07:33.746Z,3.17
2018-08-05T09:10:02.784Z,2.50
2018-08-05T09:12:31.816Z,3.40
2018-08-05T09:15:00.828Z,3.07
2018-08-05T09:17:29.852Z,3.03
2018-08-05T09:19:58.956Z,3.07
2018-08-05T09:22:27.990Z,3.17
2018-08-05T09:24:57.046Z,3.53
2018-08-05T09:27:26.389Z,3.73
2018-08-05T09:29:55.379Z,3.10
2018-08-05T09:32:24.408Z,3.00
2018-08-05T09:34:53.431Z,3.37
2018-08-05T09:37:22.378Z,2.87
2018-08-05T09:39:51.395Z,2.50
2018-08-05T09:42:20.414Z,2.53
2018-08-05T09:44:49.498Z,2.60
2018-08-05T09:47:18.547Z,2.20
2018-08-05T09:49:47.627Z,2.73
2018-08-05T09:52:16.743Z,2.30
2018-08-05T09:54:45.748Z,2.00
2018-08-05T09:57:14.833Z,2.07
2018-08-05T09:59:43.844Z,2.30
2018-08-05T10:02:12.858Z,2.03
2018-08-05T10:04:41.928Z,3.00
2018-08-05T10:07:10.987Z,2.80
2018-08-05T10:09:40.038Z,3.30
2018-08-05T10:12:09.100Z,4.10
2018-08-05T10:14:38.132Z,3.90
2018-08-05T10:17:07.158Z,2.83
2018-08-05T10:19:36.255Z,3.37
2018-08-05T10:22:05.290Z,2.50
2018-08-05T10:24:34.328Z,2.40
2018-08-05T10:27:03.405Z,2.87
2018-08-05T10:29:32.400Z,2.57
2018-08-05T10:32:01.407Z,2.10
2018-08-05T10:34:30.448Z,2.10
2018-08-05T10:36:59.470Z,2.43
2018-08-05T10:39:28.536Z,2.17
2018-08-05T10:41:57.543Z,2.20
2018-08-05T10:44:26.593Z,2.80
2018-08-05T10:46:55.764Z,2.47
2018-08-05T10:49:25.718Z,1.90
2018-08-05T10:51:54.785Z,2.07
2018-08-05T10:54:23.826Z,2.27
2018-08-05T10:56:52.940Z,2.07
2018-08-05T10:59:22.134Z,1.90
2018-08-05T11:01:51.179Z,2.07
2018-08-05T11:04:20.195Z,2.27
2018-08-05T11:06:49.279Z,2.30
2018-08-05T11:09:19.161Z,2.20
2018-08-05T11:11:48.300Z,2.30
2018-08-05T11:14:17.299Z,1.80
2018-08-05T11:16:46.445Z,1.90
2018-08-05T11:19:15.615Z,2.17
2018-08-05T11:21:44.722Z,1.80
2018-08-05T11:24:13.744Z,2.00
2018-08-05T11:26:42.875Z,1.93
2018-08-05T11:29:11.920Z,2.23
2018-08-05T11:31:41.231Z,2.10
2018-08-05T11:34:10.347Z,2.33
2018-08-05T11:36:39.378Z,2.07
2018-08-05T11:39:10.269Z,2.17
2018-08-05T11:41:39.431Z,1.70
2018-08-05T11:44:08.537Z,1.87
2018-08-05T11:46:37.583Z,2.43
2018-08-05T11:49:09.655Z,1.90
2018-08-05T11:51:39.314Z,1.63
2018-08-05T11:54:08.336Z,1.80
2018-08-05T11:56:37.403Z,1.80
2018-08-05T11:59:06.634Z,2.10
2018-08-05T12:01:35.697Z,1.70
2018-08-05T12:04:04.702Z,2.27
2018-08-05T12:06:33.686Z,2.00
2018-08-05T12:09:02.759Z,2.07
2018-08-05T12:11:31.769Z,2.20
2018-08-05T12:14:00.855Z,2.30
2018-08-05T12:16:29.826Z,2.00
2018-08-05T12:18:58.902Z,1.97
2018-08-05T12:21:27.971Z,2.13
2018-08-05T12:23:56.915Z,1.80
2018-08-05T12:26:25.923Z,1.90
2018-08-05T12:28:54.939Z,1.97
2018-08-05T12:31:23.851Z,2.20
2018-08-05T12:33:53.107Z,1.63
2018-08-05T12:36:22.104Z,2.10
2018-08-05T12:38:51.219Z,1.87
2018-08-05T12:41:20.267Z,1.30
2018-08-05T12:43:50.031Z,1.70
2018-08-05T12:46:19.041Z,2.03
2018-08-05T12:48:48.066Z,1.80
2018-08-05T12:51:22.363Z,2.30
2018-08-05T12:53:51.654Z,1.80
2018-08-05T12:56:20.738Z,1.90
2018-08-05T12:58:49.764Z,2.00
2018-08-05T13:01:18.791Z,1.90
2018-08-05T13:03:47.851Z,1.87
2018-08-05T13:06:16.912Z,2.77
2018-08-05T13:08:45.970Z,2.00
2018-08-05T13:11:14.994Z,2.90
2018-08-05T13:13:44.034Z,1.37
2018-08-05T13:16:13.065Z,1.50
2018-08-05T13:18:42.119Z,1.63
2018-08-05T13:21:11.130Z,1.67
2018-08-05T13:23:40.156Z,1.50
2018-08-05T13:26:09.186Z,1.53
2018-08-05T13:28:38.183Z,1.60
2018-08-05T13:31:07.261Z,1.60
2018-08-05T13:33:36.316Z,1.40
2018-08-05T13:36:05.366Z,1.40
2018-08-05T13:38:34.366Z,1.77
2018-08-05T13:41:03.426Z,1.57
2018-08-05T13:43:32.558Z,1.50
2018-08-05T13:46:01.659Z,1.53
2018-08-05T13:48:30.672Z,1.70
2018-08-05T13:50:59.802Z,1.70
2018-08-05T13:53:28.828Z,1.63
2018-08-05T13:55:57.887Z,1.87
2018-08-05T13:58:26.975Z,1.80
2018-08-05T14:00:56.042Z,1.47
2018-08-05T14:03:25.033Z,1.83
2018-08-05T14:05:54.115Z,1.37
2018-08-05T14:08:23.362Z,1.40
2018-08-05T14:10:52.466Z,1.30
2018-08-05T14:13:21.498Z,1.20
2018-08-05T14:15:50.550Z,1.83
2018-08-05T14:18:19.615Z,1.77
2018-08-05T14:20:48.683Z,1.50
2018-08-05T14:23:17.711Z,1.20
2018-08-05T14:25:46.754Z,1.60
2018-08-05T14:28:15.799Z,1.50
2018-08-05T14:30:45.859Z,1.30
2018-08-05T14:33:15.043Z,1.30
2018-08-05T14:35:44.198Z,1.53
2018-08-05T14:38:13.251Z,1.70
2018-08-05T14:40:42.307Z,1.30
2018-08-05T14:43:11.424Z,1.93
2018-08-05T14:45:40.487Z,1.53
2018-08-05T14:48:14.705Z,1.43
2018-08-05T14:50:43.747Z,1.40
2018-08-05T14:53:12.834Z,1.13
2018-08-05T14:55:41.863Z,1.37
2018-08-05T14:58:10.862Z,1.40
2018-08-05T15:00:39.850Z,1.23
2018-08-05T15:03:08.852Z,1.43
2018-08-05T15:05:37.897Z,1.60
2018-08-05T15:08:06.935Z,1.40
2018-08-05T15:10:35.911Z,2.00
2018-08-05T15:13:04.915Z,1.30
2018-08-05T15:15:34.251Z,1.60
2018-08-05T15:18:03.308Z,1.80
2018-08-05T15:20:32.343Z,1.53
2018-08-05T15:23:01.376Z,1.77
2018-08-05T15:25:30.406Z,1.20
2018-08-05T15:27:59.447Z,1.47
2018-08-05T15:30:28.452Z,1.40
2018-08-05T15:32:57.475Z,1.43
2018-08-05T15:35:26.560Z,1.90
2018-08-05T15:37:55.524Z,1.77
2018-08-05T15:40:25.677Z,2.10
2018-08-05T15:42:54.673Z,1.57
2018-08-05T15:45:23.817Z,1.50
2018-08-05T15:47:52.840Z,1.27
2018-08-05T15:50:21.878Z,1.30
2018-08-05T15:52:50.910Z,2.03
2018-08-05T15:55:19.923Z,1.57
2018-08-05T15:57:49.021Z,2.00
2018-08-05T16:00:18.037Z,1.67
2018-08-05T16:02:47.040Z,1.93
2018-08-05T16:05:16.072Z,1.77
2018-08-05T16:07:45.156Z,1.80
2018-08-05T16:10:14.222Z,1.90
2018-08-05T16:12:43.238Z,2.30
2018-08-05T16:15:12.284Z,1.30
2018-08-05T16:17:41.327Z,2.40
2018-08-05T16:20:10.405Z,1.87
2018-08-05T16:22:39.439Z,1.70
2018-08-05T16:25:08.478Z,1.67
2018-08-05T16:27:37.456Z,1.70
2018-08-05T16:30:07.038Z,1.70
2018-08-05T16:32:36.114Z,1.50
2018-08-05T16:35:05.182Z,1.90
2018-08-05T16:37:34.194Z,2.13
2018-08-05T16:40:03.210Z,1.90
2018-08-05T16:42:32.272Z,1.77
2018-08-05T16:45:01.268Z,1.70
2018-08-05T16:47:31.211Z,1.67
2018-08-05T16:50:00.268Z,1.67
2018-08-05T16:52:29.281Z,1.47
2018-08-05T16:54:58.364Z,1.87
2018-08-05T16:57:27.359Z,1.70
2018-08-05T16:59:56.438Z,2.03
2018-08-05T17:02:25.451Z,2.00
2018-08-05T17:04:54.450Z,1.70
2018-08-05T17:07:23.438Z,1.73
2018-08-05T17:09:52.439Z,1.80
2018-08-05T17:12:21.471Z,1.80
2018-08-05T17:14:51.526Z,1.90
2018-08-05T17:17:20.489Z,1.90
2018-08-05T17:19:49.564Z,2.03
2018-08-05T17:22:18.557Z,1.50
2018-08-05T17:24:47.596Z,1.40
2018-08-05T17:27:16.611Z,1.60
2018-08-05T17:29:45.616Z,1.37
2018-08-05T17:32:14.613Z,1.50
2018-08-05T17:34:43.709Z,1.73
2018-08-05T17:37:12.711Z,1.83
2018-08-05T17:39:41.728Z,2.17
2018-08-05T17:42:10.991Z,1.53
2018-08-05T17:44:39.981Z,1.93
2018-08-05T17:47:09.129Z,1.83
2018-08-05T17:49:38.067Z,1.50
2018-08-05T17:52:07.063Z,2.13
2018-08-05T17:54:36.073Z,1.80
2018-08-05T17:57:05.291Z,1.57
2018-08-05T17:59:34.418Z,2.10
2018-08-05T18:02:03.388Z,1.80
2018-08-05T18:04:32.448Z,1.87
2018-08-05T18:07:01.439Z,1.70
2018-08-05T18:09:30.486Z,1.83
2018-08-05T18:11:59.483Z,1.67
2018-08-05T18:14:28.520Z,1.60
2018-08-05T18:16:57.591Z,1.60
2018-08-05T18:19:26.625Z,1.60
2018-08-05T18:21:55.652Z,1.57
2018-08-05T18:24:24.617Z,1.70
2018-08-05T18:26:53.649Z,1.50
2018-08-05T18:29:22.946Z,1.80
2018-08-05T18:31:51.955Z,1.57
2018-08-05T18:34:21.057Z,2.10
2018-08-05T18:36:50.067Z,1.83
2018-08-05T18:39:19.049Z,1.33
2018-08-05T18:41:47.991Z,2.07
2018-08-05T18:44:16.954Z,2.00
2018-08-05T18:46:45.875Z,1.70
2018-08-05T18:49:14.911Z,1.37
2018-08-05T18:51:43.874Z,2.30
2018-08-05T18:54:12.898Z,2.03
2018-08-05T18:56:41.879Z,1.83
2018-08-05T18:59:10.883Z,1.43
2018-08-05T19:01:40.070Z,2.00
2018-08-05T19:04:09.128Z,1.80
2018-08-05T19:06:38.103Z,1.60
2018-08-05T19:09:08.893Z,1.60
2018-08-05T19:11:37.922Z,2.03
2018-08-05T19:14:07.092Z,1.60
2018-08-05T19:19:15.843Z,1.70
2018-08-05T19:21:44.866Z,1.73
2018-08-05T19:24:14.051Z,2.40
2018-08-05T19:26:43.143Z,1.73
2018-08-05T19:29:12.149Z,1.60
2018-08-05T19:31:41.199Z,1.63
2018-08-05T19:34:10.200Z,1.80
2018-08-05T19:36:39.283Z,1.90
2018-08-05T19:39:10.442Z,1.80
2018-08-05T19:41:39.452Z,1.63
2018-08-05T19:44:08.573Z,2.13
2018-08-05T19:46:37.615Z,2.60
2018-08-05T19:49:06.605Z,2.60
2018-08-05T19:51:35.630Z,1.73
2018-08-05T19:54:04.713Z,2.30
2018-08-05T19:56:33.806Z,2.37
2018-08-05T19:59:02.822Z,1.80
2018-08-05T20:01:31.892Z,2.17
2018-08-05T20:04:00.912Z,1.80
2018-08-05T20:06:29.927Z,2.10
2018-08-05T20:08:58.990Z,2.20
2018-08-05T20:11:28.034Z,1.87
2018-08-05T20:13:57.268Z,2.10
2018-08-05T20:16:26.380Z,1.90
2018-08-05T20:18:55.359Z,2.07
2018-08-05T20:21:24.580Z,2.10
2018-08-05T20:23:53.554Z,14.10
2018-08-05T20:26:22.786Z,2.33
2018-08-05T20:28:51.778Z,2.37
2018-08-05T20:31:20.807Z,2.50
2018-08-05T20:33:50.278Z,2.20
2018-08-05T20:36:19.299Z,2.30
2018-08-05T20:38:48.339Z,2.30
2018-08-05T20:41:17.331Z,1.90
2018-08-05T20:43:46.353Z,2.37
2018-08-05T20:46:15.429Z,1.73
2018-08-05T20:48:44.479Z,1.77
2018-08-05T20:51:13.614Z,2.77
2018-08-05T20:53:42.635Z,2.23
2018-08-05T20:56:11.666Z,1.73
2018-08-05T20:58:40.732Z,1.90
2018-08-05T21:01:09.802Z,2.60
2018-08-05T21:03:38.858Z,1.97
2018-08-05T21:06:07.809Z,1.77
2018-08-05T21:08:36.817Z,2.20
2018-08-05T21:11:05.873Z,2.30
2018-08-05T21:13:35.896Z,2.10
2018-08-05T21:16:04.970Z,2.63
2018-08-05T21:18:33.935Z,1.80
2018-08-05T21:21:03.130Z,2.47
2018-08-05T21:23:32.135Z,2.20
2018-08-05T21:26:01.110Z,2.17
2018-08-05T21:28:30.083Z,2.20
2018-08-05T21:30:59.049Z,2.00
2018-08-05T21:33:28.715Z,2.47
2018-08-05T21:35:57.953Z,2.10
2018-08-05T21:38:26.957Z,2.63
2018-08-05T21:40:55.978Z,2.60
2018-08-05T21:43:24.971Z,2.47
2018-08-05T21:45:53.922Z,2.50
2018-08-05T21:48:22.966Z,2.13
2018-08-05T21:50:51.963Z,2.63
2018-08-05T21:53:21.321Z,2.20
2018-08-05T21:55:50.265Z,2.53
2018-08-05T21:58:19.261Z,2.30
2018-08-05T22:00:48.287Z,2.83
2018-08-05T22:03:17.312Z,2.13
2018-08-05T22:05:47.287Z,2.13
2018-08-05T22:08:16.256Z,2.40
2018-08-05T22:10:45.324Z,2.30
2018-08-05T22:13:14.295Z,2.10
2018-08-05T22:15:43.277Z,2.10
2018-08-05T22:18:12.241Z,2.00
2018-08-05T22:20:41.255Z,2.03
2018-08-05T22:23:10.313Z,2.97
2018-08-05T22:25:39.363Z,1.90
2018-08-05T22:28:08.386Z,2.53
2018-08-05T22:30:37.391Z,2.30
2018-08-05T22:33:06.382Z,2.40
2018-08-05T22:35:35.402Z,2.40
2018-08-05T22:38:04.424Z,1.93
2018-08-05T22:40:33.461Z,2.63
2018-08-05T22:43:02.419Z,2.10
2018-08-05T22:45:31.395Z,2.50
2018-08-05T22:48:06.825Z,2.40
2018-08-05T22:50:35.834Z,1.87
2018-08-05T22:53:04.867Z,1.70
2018-08-05T22:55:33.870Z,2.13
2018-08-05T22:58:02.995Z,2.07
2018-08-05T23:00:32.031Z,1.87
2018-08-05T23:03:01.022Z,2.17
2018-08-05T23:05:30.045Z,2.00
2018-08-05T23:07:59.029Z,1.80
2018-08-05T23:10:28.146Z,2.60
2018-08-05T23:12:57.118Z,2.60
2018-08-05T23:15:26.769Z,2.20
2018-08-05T23:17:56.097Z,2.30
2018-08-05T23:20:25.099Z,2.47
2018-08-05T23:22:59.623Z,2.17
2018-08-05T23:25:28.859Z,2.60
2018-08-05T23:27:59.046Z,2.40
2018-08-05T23:30:28.991Z,2.53
2018-08-05T23:32:58.025Z,2.40
2018-08-05T23:35:27.059Z,2.47
2018-08-05T23:37:56.066Z,2.27
2018-08-05T23:40:26.123Z,2.20
2018-08-05T23:42:55.194Z,2.30
2018-08-05T23:45:24.835Z,2.73
2018-08-05T23:47:53.822Z,2.03
2018-08-05T23:50:26.753Z,2.40
2018-08-05T23:52:56.227Z,2.20
2018-08-05T23:55:25.283Z,2.40
2018-08-05T23:57:54.443Z,2.40
